Time;durP1;ratioP1;P1;durP2;ratioP2;P2;SDS_P1;SDS_P2;PMS_P1;PMS_P2;Temp;Humidity;BMP_temperature;BMP_pressure;BME280_temperature;BME280_humidity;BME280_pressure;Samples;Min_cycle;Max_cycle;Signal;HPM_P1;HPM_P2
2022/04/24 00:01:50;;;;;;;8.68;3.70;;;9.20;99.90;;;;;;6307712;22;20057;-84
2022/04/24 00:04:16;;;;;;;5.18;3.42;;;8.50;99.90;;;;;;6307915;22;20081;-84
2022/04/24 00:06:41;;;;;;;7.65;3.65;;;8.60;99.90;;;;;;6280315;22;20031;-85
2022/04/24 00:09:08;;;;;;;5.00;3.28;;;8.40;99.90;;;;;;6307628;22;20055;-84
2022/04/24 00:11:33;;;;;;;6.68;3.35;;;8.80;99.90;;;;;;6307949;22;20424;-85
2022/04/24 00:13:59;;;;;;;5.85;3.65;;;8.80;99.90;;;;;;6307544;22;20022;-84
2022/04/24 00:16:25;;;;;;;6.22;3.28;;;8.40;99.90;;;;;;6307578;22;20031;-84
2022/04/24 00:18:51;;;;;;;5.32;3.67;;;8.40;99.90;;;;;;6308102;22;20078;-85
2022/04/24 00:21:16;;;;;;;5.70;3.75;;;8.40;99.90;;;;;;6308186;22;20022;-85
2022/04/24 00:23:43;;;;;;;9.13;3.67;;;8.50;99.90;;;;;;6307727;22;20314;-85
2022/04/24 00:26:09;;;;;;;6.18;3.40;;;8.40;99.90;;;;;;6307998;22;20023;-85
2022/04/24 00:28:35;;;;;;;6.60;4.40;;;8.40;99.90;;;;;;6308164;22;20387;-85
2022/04/24 00:31:00;;;;;;;8.95;4.35;;;8.60;99.90;;;;;;6307715;22;20019;-84
2022/04/24 00:33:26;;;;;;;6.53;4.05;;;8.20;99.90;;;;;;6307701;22;20062;-84
2022/04/24 00:35:52;;;;;;;7.18;4.50;;;8.20;99.90;;;;;;6280077;22;20050;-84
2022/04/24 00:38:17;;;;;;;5.93;3.80;;;8.20;99.90;;;;;;6307973;22;20323;-84
2022/04/24 00:40:47;;;;;;;5.72;3.83;;;8.20;99.90;;;;;;6280516;22;20433;-84
2022/04/24 00:43:14;;;;;;;5.20;3.97;;;8.10;99.90;;;;;;6280323;22;20058;-84
2022/04/24 00:45:39;;;;;;;6.70;3.72;;;9.00;99.90;;;;;;6280723;22;20007;-85
2022/04/24 00:48:06;;;;;;;6.10;3.30;;;8.80;99.90;;;;;;6307507;22;20100;-84
2022/04/24 00:50:31;;;;;;;4.93;3.40;;;8.00;99.90;;;;;;6280873;22;20027;-84
2022/04/24 00:52:57;;;;;;;6.03;3.58;;;7.90;99.90;;;;;;6307736;22;20016;-85
2022/04/24 00:55:23;;;;;;;5.10;3.45;;;8.00;99.90;;;;;;6307788;22;20398;-84
2022/04/24 00:57:52;;;;;;;6.10;3.83;;;7.90;99.90;;;;;;6280529;22;20011;-85
2022/04/24 01:00:18;;;;;;;5.45;3.22;;;7.90;99.90;;;;;;6307540;22;20026;-85
2022/04/24 01:02:44;;;;;;;5.45;3.55;;;7.90;99.90;;;;;;6255774;22;20487;-85
2022/04/24 01:05:10;;;;;;;5.60;3.40;;;7.90;99.90;;;;;;6316820;22;20094;-85
2022/04/24 01:07:35;;;;;;;4.72;3.53;;;8.60;99.90;;;;;;6289708;22;20023;-87
2022/04/24 01:10:01;;;;;;;7.32;3.88;;;7.80;99.90;;;;;;6307392;22;20065;-87
2022/04/24 01:12:27;;;;;;;6.78;3.60;;;7.80;99.90;;;;;;6280376;22;20020;-85
2022/04/24 01:14:52;;;;;;;8.13;4.43;;;8.00;99.90;;;;;;6307843;22;20020;-87
2022/04/24 01:17:19;;;;;;;6.57;3.55;;;7.80;99.90;;;;;;6279726;22;20341;-87
2022/04/24 01:19:44;;;;;;;5.65;3.30;;;7.80;99.90;;;;;;6307527;22;20025;-87
2022/04/24 01:22:10;;;;;;;6.47;3.53;;;8.60;99.90;;;;;;6307565;22;20374;-86
2022/04/24 01:24:36;;;;;;;4.72;3.20;;;7.80;99.90;;;;;;6306721;22;20027;-86
2022/04/24 01:27:02;;;;;;;7.95;4.03;;;7.70;99.90;;;;;;6307406;22;20023;-86
2022/04/24 01:29:28;;;;;;;5.75;3.53;;;7.70;99.90;;;;;;6279321;22;20327;-86
2022/04/24 01:31:53;;;;;;;5.18;3.15;;;7.90;99.90;;;;;;6306841;22;20315;-86
2022/04/24 01:34:20;;;;;;;6.55;4.25;;;8.70;99.90;;;;;;6307517;22;20076;-86
2022/04/24 01:36:46;;;;;;;5.90;4.03;;;7.60;99.90;;;;;;6307130;22;20031;-86
2022/04/24 01:39:14;;;;;;;5.93;4.38;;;8.00;99.90;;;;;;6279975;22;20023;-86
2022/04/24 01:41:39;;;;;;;6.03;3.83;;;8.50;99.90;;;;;;6279311;22;20023;-85
2022/04/24 01:44:05;;;;;;;5.72;3.60;;;8.30;99.90;;;;;;6307359;22;20019;-85
2022/04/24 01:46:34;;;;;;;6.00;3.63;;;7.60;99.90;;;;;;6307513;22;20049;-86
2022/04/24 01:49:00;;;;;;;5.78;3.42;;;7.80;99.90;;;;;;6279464;22;20027;-86
2022/04/24 01:51:26;;;;;;;6.25;4.03;;;7.60;99.90;;;;;;6307411;22;20468;-86
2022/04/24 01:53:51;;;;;;;6.22;3.95;;;7.60;99.90;;;;;;6307399;22;20464;-86
2022/04/24 01:56:17;;;;;;;5.70;3.72;;;7.90;99.90;;;;;;6307351;22;20019;-86
2022/04/24 01:58:43;;;;;;;7.35;3.92;;;5.90;99.90;;;;;;6307350;22;20121;-86
2022/04/24 02:01:08;;;;;;;5.00;3.35;;;7.50;99.90;;;;;;6306510;22;20020;-85
2022/04/24 02:03:35;;;;;;;6.07;3.58;;;5.90;99.90;;;;;;6306765;22;20487;-85
2022/04/24 02:06:03;;;;;;;5.32;3.50;;;7.40;99.90;;;;;;6306964;22;20015;-84
2022/04/24 02:08:30;;;;;;;5.80;3.40;;;7.30;99.90;;;;;;6279576;22;20023;-84
2022/04/24 02:10:56;;;;;;;7.25;3.47;;;7.40;99.90;;;;;;6279916;22;20019;-87
2022/04/24 02:13:22;;;;;;;4.55;3.20;;;7.80;99.90;;;;;;6306921;22;20023;-84
2022/04/24 02:15:49;;;;;;;6.43;3.35;;;8.20;99.90;;;;;;6307276;22;20081;-85
2022/04/24 02:18:15;;;;;;;5.28;3.63;;;8.20;99.90;;;;;;6279530;22;20023;-84
2022/04/24 02:20:41;;;;;;;4.32;2.60;;;7.30;99.90;;;;;;6279733;22;20023;-84
2022/04/24 02:23:08;;;;;;;7.57;2.85;;;7.20;99.90;;;;;;6279307;22;20381;-84
2022/04/24 02:25:34;;;;;;;5.28;2.83;;;7.90;99.90;;;;;;6307039;22;20026;-84
2022/04/24 02:28:00;;;;;;;5.63;2.70;;;7.10;99.90;;;;;;6279651;22;20100;-85
2022/04/24 02:30:28;;;;;;;5.40;2.97;;;7.10;99.90;;;;;;6307028;22;20058;-84
2022/04/24 02:32:58;;;;;;;5.82;2.95;;;7.40;99.90;;;;;;6307306;22;20445;-84
2022/04/24 02:35:25;;;;;;;5.35;3.22;;;7.10;99.90;;;;;;6281263;22;20026;-84
2022/04/24 02:37:51;;;;;;;4.75;3.28;;;5.70;99.90;;;;;;6309450;22;20449;-84
2022/04/24 02:40:21;;;;;;;7.70;3.45;;;7.30;99.90;;;;;;6309268;22;20033;-85
2022/04/24 02:42:50;;;;;;;5.45;3.28;;;6.50;99.90;;;;;;6309445;22;20041;-84
2022/04/24 02:45:16;;;;;;;5.38;3.33;;;7.00;99.90;;;;;;6309650;22;20015;-84
2022/04/24 02:47:42;;;;;;;5.88;3.55;;;7.10;99.90;;;;;;6281779;22;20031;-84
2022/04/24 02:50:08;;;;;;;5.40;2.80;;;7.70;99.90;;;;;;6311303;22;20022;-85
2022/04/24 02:52:54;;;;;;;3.30;2.28;;;7.70;99.90;;;;;;6284527;22;20062;-84
2022/04/24 02:55:21;;;;;;;4.13;2.78;;;6.80;99.90;;;;;;6311766;22;20104;-84
2022/04/24 02:57:47;;;;;;;5.68;2.63;;;7.50;99.90;;;;;;6308786;22;20429;-84
2022/04/24 03:00:19;;;;;;;6.63;3.90;;;7.50;99.90;;;;;;6308722;22;20023;-84
2022/04/24 03:02:46;;;;;;;5.75;3.60;;;6.80;99.90;;;;;;6308741;22;20011;-85
2022/04/24 03:05:16;;;;;;;4.15;2.90;;;7.80;99.90;;;;;;6280769;22;20441;-85
2022/04/24 03:07:42;;;;;;;5.45;3.28;;;7.20;99.90;;;;;;6308936;22;20031;-84
2022/04/24 03:10:09;;;;;;;6.60;4.10;;;6.70;99.90;;;;;;6280834;22;20019;-84
2022/04/24 03:12:36;;;;;;;6.30;3.83;;;7.00;99.90;;;;;;6308739;22;20023;-84
2022/04/24 03:15:03;;;;;;;5.82;3.13;;;6.20;99.90;;;;;;6281576;22;20061;-85
2022/04/24 03:17:31;;;;;;;5.57;3.90;;;6.70;99.90;;;;;;6308477;22;20015;-86
2022/04/24 03:19:57;;;;;;;6.45;3.42;;;6.70;99.90;;;;;;6309050;22;20145;-84
2022/04/24 03:22:22;;;;;;;6.47;3.95;;;6.70;99.90;;;;;;6281090;22;20461;-84
2022/04/24 03:24:48;;;;;;;7.57;4.03;;;6.70;99.90;;;;;;6280940;22;20406;-86
2022/04/24 03:27:14;;;;;;;9.02;4.72;;;6.70;99.90;;;;;;6308379;22;20019;-85
2022/04/24 03:29:40;;;;;;;6.63;3.92;;;7.20;99.90;;;;;;6308690;22;20118;-86
2022/04/24 03:32:06;;;;;;;5.38;3.15;;;7.20;99.90;;;;;;6309718;22;20046;-85
2022/04/24 03:34:31;;;;;;;6.78;4.55;;;6.60;99.90;;;;;;6282017;22;20023;-84
2022/04/24 03:36:57;;;;;;;6.28;4.50;;;6.70;99.90;;;;;;6308336;22;20344;-84
2022/04/24 03:39:23;;;;;;;6.68;4.18;;;7.50;99.90;;;;;;6281071;22;20042;-84
2022/04/24 03:41:48;;;;;;;5.85;3.63;;;7.20;99.90;;;;;;6307914;22;20023;-85
2022/04/24 03:44:14;;;;;;;6.43;3.63;;;6.50;99.90;;;;;;6308299;22;20023;-85
2022/04/24 03:46:40;;;;;;;5.65;3.25;;;7.10;99.90;;;;;;6307838;22;20089;-84
2022/04/24 03:49:06;;;;;;;6.55;3.63;;;6.20;99.90;;;;;;6308402;22;20020;-85
2022/04/24 03:51:32;;;;;;;6.40;4.03;;;7.60;99.90;;;;;;6308487;22;20389;-86
2022/04/24 03:53:57;;;;;;;5.60;3.67;;;6.60;99.90;;;;;;6308721;22;20372;-87
2022/04/24 03:56:23;;;;;;;6.68;3.25;;;7.50;99.90;;;;;;6281129;22;20015;-87
2022/04/24 03:58:49;;;;;;;5.43;3.05;;;5.50;99.90;;;;;;6311306;22;20011;-86
2022/04/24 04:01:14;;;;;;;4.90;3.10;;;7.30;99.90;;;;;;6308305;22;20041;-84
2022/04/24 04:03:40;;;;;;;6.05;3.20;;;7.20;99.90;;;;;;6280980;22;20015;-83
2022/04/24 04:06:06;;;;;;;6.03;3.22;;;7.10;99.90;;;;;;6308229;22;20449;-85
2022/04/24 04:08:31;;;;;;;6.38;4.05;;;7.30;99.90;;;;;;6308361;22;20051;-84
2022/04/24 04:10:57;;;;;;;7.40;3.83;;;7.60;99.90;;;;;;6280095;22;20011;-84
2022/04/24 04:13:23;;;;;;;7.93;3.65;;;6.60;99.90;;;;;;6280291;22;20472;-84
2022/04/24 04:15:48;;;;;;;6.40;3.20;;;7.60;99.90;;;;;;6308394;22;20342;-85
2022/04/24 04:18:14;;;;;;;6.78;3.95;;;7.00;99.90;;;;;;6279855;22;20022;-84
2022/04/24 04:20:40;;;;;;;7.55;3.63;;;6.80;99.90;;;;;;6308152;22;20071;-85
2022/04/24 04:23:06;;;;;;;6.63;4.05;;;7.30;99.90;;;;;;6308413;22;20023;-84
2022/04/24 04:25:32;;;;;;;9.43;4.57;;;6.60;99.90;;;;;;6307712;22;20023;-84
2022/04/24 04:27:57;;;;;;;5.38;3.50;;;7.00;99.90;;;;;;6279612;22;20460;-84
2022/04/24 04:30:23;;;;;;;9.13;4.28;;;6.80;99.90;;;;;;6307413;22;20053;-84
2022/04/24 04:32:50;;;;;;;7.95;4.32;;;7.60;99.90;;;;;;6307682;22;20090;-84
2022/04/24 04:35:16;;;;;;;7.15;4.15;;;7.30;99.90;;;;;;6307813;22;20120;-85
2022/04/24 04:37:41;;;;;;;7.78;4.07;;;7.60;99.90;;;;;;6307284;22;20023;-85
2022/04/24 04:40:08;;;;;;;8.77;4.45;;;7.40;99.90;;;;;;6279913;22;20031;-84
2022/04/24 04:42:34;;;;;;;9.10;4.53;;;6.80;99.90;;;;;;6279452;22;20015;-85
2022/04/24 04:45:00;;;;;;;8.02;4.40;;;7.80;99.90;;;;;;6279736;22;20019;-84
2022/04/24 04:47:30;;;;;;;7.05;3.45;;;7.50;99.90;;;;;;6307272;22;20023;-85
2022/04/24 04:49:56;;;;;;;8.13;4.82;;;7.50;99.90;;;;;;6307285;22;20019;-84
2022/04/24 04:52:22;;;;;;;8.70;4.85;;;7.60;99.90;;;;;;6279922;22;20034;-84
2022/04/24 04:54:49;;;;;;;8.00;5.10;;;7.90;99.90;;;;;;6307528;22;20061;-84
2022/04/24 04:57:14;;;;;;;10.38;5.20;;;7.30;99.90;;;;;;6307358;22;20349;-86
2022/04/24 04:59:41;;;;;;;6.75;4.32;;;7.00;99.90;;;;;;6306990;22;20019;-85
2022/04/24 05:02:06;;;;;;;8.15;4.10;;;8.00;99.90;;;;;;6307068;22;20011;-84
2022/04/24 05:04:32;;;;;;;7.10;3.97;;;7.50;99.90;;;;;;6280086;22;20063;-84
2022/04/24 05:06:58;;;;;;;5.20;3.33;;;8.10;99.90;;;;;;6306576;22;20030;-85
2022/04/24 05:09:24;;;;;;;10.43;4.78;;;7.20;99.90;;;;;;6307217;22;20055;-84
2022/04/24 05:11:50;;;;;;;8.48;4.65;;;8.20;99.90;;;;;;6306827;22;20020;-87
2022/04/24 05:14:16;;;;;;;8.45;5.07;;;7.20;99.90;;;;;;6253981;22;20349;-88
2022/04/24 05:16:42;;;;;;;9.68;4.75;;;7.30;99.90;;;;;;6279592;22;20027;-85
2022/04/24 05:19:08;;;;;;;8.73;4.85;;;7.30;99.90;;;;;;6279598;22;20071;-85
2022/04/24 05:21:34;;;;;;;9.40;4.40;;;8.10;99.90;;;;;;6280779;22;20094;-85
2022/04/24 05:24:00;;;;;;;10.00;4.65;;;8.20;99.90;;;;;;6279485;22;20457;-86
2022/04/24 05:26:27;;;;;;;10.48;4.57;;;8.30;99.90;;;;;;6307501;22;20018;-86
2022/04/24 05:28:53;;;;;;;10.65;5.72;;;7.70;99.90;;;;;;6307442;22;20454;-87
2022/04/24 05:31:19;;;;;;;8.45;4.40;;;7.90;99.90;;;;;;6307178;22;20061;-87
2022/04/24 05:33:45;;;;;;;8.23;4.15;;;7.80;99.90;;;;;;6307074;22;20019;-86
2022/04/24 05:36:11;;;;;;;10.00;5.30;;;8.50;99.90;;;;;;6306959;22;20023;-88
2022/04/24 05:38:36;;;;;;;7.05;3.90;;;8.70;99.90;;;;;;6307211;22;20019;-87
2022/04/24 05:41:03;;;;;;;6.18;2.97;;;8.70;99.90;;;;;;6306971;22;20440;-87
2022/04/24 05:43:29;;;;;;;8.93;4.30;;;7.70;99.90;;;;;;6307330;22;20016;-86
2022/04/24 05:45:55;;;;;;;6.43;3.65;;;8.40;99.90;;;;;;6280539;22;20391;-87
2022/04/24 05:48:22;;;;;;;7.22;3.70;;;8.00;99.90;;;;;;6280866;22;20019;-87
2022/04/24 05:50:48;;;;;;;6.30;3.85;;;8.00;99.90;;;;;;6308409;22;20030;-88
2022/04/24 05:53:14;;;;;;;8.65;4.03;;;8.10;99.90;;;;;;6310394;22;20023;-88
2022/04/24 05:55:40;;;;;;;8.07;4.00;;;8.30;99.90;;;;;;6309402;22;20023;-88
2022/04/24 05:58:06;;;;;;;8.18;4.13;;;8.30;99.90;;;;;;6281706;22;20015;-87
2022/04/24 06:00:32;;;;;;;4.90;2.83;;;8.40;99.90;;;;;;6310759;22;20027;-87
2022/04/24 06:06:51;;;;;;;6.88;3.35;;;8.60;99.90;;;;;;6306893;22;20449;-87
2022/04/24 06:09:18;;;;;;;4.85;2.70;;;8.70;99.90;;;;;;6278664;22;20474;-87
2022/04/24 06:11:44;;;;;;;5.43;2.88;;;9.20;99.90;;;;;;6279043;22;20027;-87
2022/04/24 06:14:10;;;;;;;3.90;2.50;;;9.60;99.90;;;;;;6279107;22;20053;-88
2022/04/24 06:16:36;;;;;;;9.23;3.05;;;9.50;99.90;;;;;;6306826;22;20065;-88
2022/04/24 06:19:02;;;;;;;4.68;2.53;;;9.00;99.90;;;;;;6280540;22;20373;-87
2022/04/24 06:21:28;;;;;;;5.78;2.35;;;9.50;99.90;;;;;;6308593;22;20030;-89
2022/04/24 06:23:53;;;;;;;4.25;1.90;;;9.80;99.90;;;;;;6284890;22;20031;-87
2022/04/24 06:26:19;;;;;;;4.75;1.92;;;9.20;99.90;;;;;;6307520;22;20084;-86
2022/04/24 06:28:45;;;;;;;4.18;2.15;;;9.30;99.90;;;;;;6275028;22;20455;-87
2022/04/24 06:31:11;;;;;;;3.17;1.60;;;9.90;99.90;;;;;;6306412;22;20399;-85
2022/04/24 06:33:36;;;;;;;4.80;1.83;;;9.40;99.90;;;;;;6279287;22;20023;-84
2022/04/24 06:36:03;;;;;;;4.00;1.40;;;10.40;99.90;;;;;;6280459;22;20068;-90
2022/04/24 06:38:29;;;;;;;5.60;1.52;;;9.60;99.90;;;;;;6307827;22;20319;-89
2022/04/24 06:40:57;;;;;;;2.60;1.35;;;9.80;99.90;;;;;;6308424;22;20026;-89
2022/04/24 06:43:23;;;;;;;2.22;1.15;;;9.80;99.90;;;;;;6280653;22;20386;-87
2022/04/24 06:45:48;;;;;;;4.38;1.63;;;10.10;99.90;;;;;;6280061;22;20034;-87
2022/04/24 06:51:02;;;;;;;5.28;1.45;;;10.10;99.90;;;;;;6279958;22;20015;-89
2022/04/24 06:53:28;;;;;;;6.63;1.33;;;10.30;99.90;;;;;;6307768;22;20057;-85
2022/04/24 06:55:54;;;;;;;3.35;1.40;;;10.60;99.90;;;;;;6280842;22;20065;-86
2022/04/24 06:58:20;;;;;;;2.75;1.05;;;10.60;99.90;;;;;;6308942;22;20055;-84
2022/04/24 07:00:47;;;;;;;4.00;1.38;;;11.00;99.90;;;;;;6279705;22;20058;-87
2022/04/24 07:03:22;;;;;;;1.98;1.00;;;11.00;99.90;;;;;;6307875;22;20015;-85
2022/04/24 07:05:49;;;;;;;3.97;1.27;;;10.90;99.90;;;;;;6280292;22;20399;-85
2022/04/24 07:08:15;;;;;;;2.75;1.30;;;11.10;99.90;;;;;;6279788;22;20460;-87
2022/04/24 07:10:41;;;;;;;5.97;1.40;;;11.30;99.90;;;;;;6307085;22;20023;-87
2022/04/24 07:13:07;;;;;;;3.50;1.25;;;11.00;99.90;;;;;;6279125;22;20019;-88
2022/04/24 07:15:35;;;;;;;3.08;0.95;;;11.20;99.90;;;;;;6278997;22;20024;-87
2022/04/24 07:18:01;;;;;;;1.90;1.10;;;11.10;99.90;;;;;;6306408;22;20019;-88
2022/04/24 07:20:29;;;;;;;2.13;1.30;;;11.30;99.90;;;;;;6306267;22;20011;-85
2022/04/24 07:23:01;;;;;;;2.90;1.20;;;11.30;99.90;;;;;;6280090;22;20015;-86
2022/04/24 07:25:32;;;;;;;3.22;1.35;;;11.40;99.90;;;;;;6280526;22;20019;-86
2022/04/24 07:27:57;;;;;;;4.05;1.48;;;12.30;99.90;;;;;;6280737;22;20319;-85
2022/04/24 07:30:23;;;;;;;5.38;1.65;;;11.60;99.90;;;;;;6308060;22;20018;-86
2022/04/24 07:32:54;;;;;;;5.07;1.52;;;11.60;99.90;;;;;;6280447;22;20019;-86
2022/04/24 07:35:25;;;;;;;3.08;1.77;;;11.80;99.90;;;;;;6280504;22;20054;-86
2022/04/24 07:37:51;;;;;;;3.88;1.48;;;11.70;99.90;;;;;;6308245;22;20054;-86
2022/04/24 07:40:22;;;;;;;2.47;1.25;;;12.00;99.90;;;;;;6280569;22;20019;-85
2022/04/24 07:43:02;;;;;;;3.20;1.45;;;11.80;99.90;;;;;;6307468;22;20022;-86
2022/04/24 07:45:39;;;;;;;3.58;1.30;;;12.00;99.90;;;;;;6280338;22;20023;-86
2022/04/24 07:48:07;;;;;;;4.35;1.70;;;12.10;99.90;;;;;;6280421;22;20094;-85
2022/04/24 07:50:39;;;;;;;3.65;1.88;;;12.30;99.90;;;;;;6308024;22;20019;-86
2022/04/24 07:53:06;;;;;;;3.72;1.50;;;12.40;99.90;;;;;;6308059;22;20066;-85
2022/04/24 07:55:31;;;;;;;3.40;1.40;;;12.40;99.90;;;;;;6280958;22;20027;-85
2022/04/24 07:57:58;;;;;;;4.60;1.63;;;12.40;99.90;;;;;;6308147;22;20370;-85
2022/04/24 08:00:28;;;;;;;2.95;1.20;;;12.60;99.90;;;;;;6280450;22;20511;-85
2022/04/24 08:03:05;;;;;;;3.00;1.30;;;12.80;99.90;;;;;;6254835;22;20007;-86
2022/04/24 08:05:33;;;;;;;2.33;1.25;;;12.80;99.90;;;;;;6307708;22;20054;-85
2022/04/24 08:08:01;;;;;;;3.55;1.27;;;12.90;99.90;;;;;;6307458;22;20022;-86
2022/04/24 08:10:30;;;;;;;2.10;1.20;;;13.60;99.90;;;;;;6308005;22;20111;-86
2022/04/24 08:12:56;;;;;;;5.93;1.20;;;13.10;99.90;;;;;;6280605;22;20106;-85
2022/04/24 08:15:22;;;;;;;4.93;1.40;;;13.40;99.90;;;;;;6307919;22;20027;-85
2022/04/24 08:17:48;;;;;;;4.88;1.45;;;13.20;99.90;;;;;;6307289;22;20480;-85
2022/04/24 08:20:15;;;;;;;4.22;2.00;;;13.30;99.90;;;;;;6280697;22;20019;-85
2022/04/24 08:22:49;;;;;;;2.72;1.38;;;13.20;99.90;;;;;;6307945;22;20388;-86
2022/04/24 08:25:17;;;;;;;4.43;1.50;;;13.20;99.90;;;;;;6307268;22;20020;-85
2022/04/24 08:27:44;;;;;;;3.25;1.30;;;13.30;99.90;;;;;;6308068;22;20388;-85
2022/04/24 08:30:11;;;;;;;3.58;1.60;;;13.40;99.90;;;;;;6280551;22;20019;-86
2022/04/24 08:32:38;;;;;;;5.63;1.65;;;13.50;99.90;;;;;;6307427;22;20023;-86
2022/04/24 08:35:05;;;;;;;2.75;1.42;;;13.60;99.90;;;;;;6307850;22;20023;-86
2022/04/24 08:37:31;;;;;;;5.38;1.33;;;13.60;99.90;;;;;;6279833;22;20026;-84
2022/04/24 08:39:57;;;;;;;2.85;1.27;;;13.90;99.90;;;;;;6307798;22;20019;-86
2022/04/24 08:42:23;;;;;;;2.42;1.30;;;13.70;99.90;;;;;;6308215;22;20061;-86
2022/04/24 08:44:50;;;;;;;3.60;1.25;;;13.70;99.90;;;;;;6282535;22;20045;-86
2022/04/24 08:47:18;;;;;;;7.47;1.50;;;14.50;99.90;;;;;;6290153;22;20027;-88
2022/04/24 08:49:44;;;;;;;3.83;1.67;;;14.00;99.90;;;;;;6315595;22;20402;-88
2022/04/24 08:52:10;;;;;;;3.22;1.58;;;14.10;99.90;;;;;;6287154;22;20450;-85
2022/04/24 08:54:41;;;;;;;5.35;1.60;;;14.10;99.90;;;;;;6310196;22;20019;-83
2022/04/24 08:57:10;;;;;;;4.30;1.80;;;14.30;99.90;;;;;;6307471;22;20019;-85
2022/04/24 08:59:39;;;;;;;6.80;1.23;;;14.30;99.90;;;;;;6279598;22;20031;-84
2022/04/24 09:02:05;;;;;;;2.72;1.05;;;14.40;99.90;;;;;;6307213;22;20015;-85
2022/04/24 09:04:32;;;;;;;2.63;1.50;;;14.40;99.90;;;;;;6306827;22;20465;-85
2022/04/24 09:07:00;;;;;;;3.47;1.58;;;14.40;99.90;;;;;;6306816;22;20030;-85
2022/04/24 09:09:26;;;;;;;3.08;1.00;;;14.40;99.90;;;;;;6307015;22;20019;-84
2022/04/24 09:11:51;;;;;;;3.60;1.33;;;14.40;99.90;;;;;;6307200;22;20015;-84
2022/04/24 09:14:23;;;;;;;3.80;1.20;;;14.60;99.90;;;;;;6301398;22;20023;-85
2022/04/24 09:16:49;;;;;;;5.75;1.08;;;14.70;99.90;;;;;;6301673;22;20015;-83
2022/04/24 09:19:17;;;;;;;2.88;1.27;;;14.80;99.90;;;;;;6253318;22;20023;-84
2022/04/24 09:21:44;;;;;;;2.33;1.00;;;14.90;99.90;;;;;;6278304;22;20050;-84
2022/04/24 09:24:10;;;;;;;1.75;0.90;;;15.00;99.90;;;;;;6307050;22;20020;-84
2022/04/24 09:26:36;;;;;;;4.22;1.15;;;15.00;99.90;;;;;;6306112;22;20021;-85
2022/04/24 09:29:10;;;;;;;4.10;1.10;;;14.90;99.90;;;;;;6276570;22;20034;-84
2022/04/24 09:31:36;;;;;;;1.42;0.82;;;15.10;99.90;;;;;;6306215;22;20019;-85
2022/04/24 09:34:02;;;;;;;2.08;1.00;;;15.30;99.90;;;;;;6278947;22;20358;-84
2022/04/24 09:36:27;;;;;;;3.15;0.90;;;15.30;99.90;;;;;;6307002;22;20026;-85
2022/04/24 09:38:53;;;;;;;2.40;0.90;;;15.30;99.70;;;;;;6279471;22;20129;-82
2022/04/24 09:41:23;;;;;;;4.90;1.00;;;15.30;99.80;;;;;;6279185;22;20468;-83
2022/04/24 09:43:50;;;;;;;1.90;0.82;;;15.40;99.90;;;;;;6306815;22;20383;-83
2022/04/24 09:46:26;;;;;;;2.35;1.00;;;15.40;99.90;;;;;;6306504;22;20373;-83
2022/04/24 09:48:53;;;;;;;3.45;0.98;;;15.40;99.70;;;;;;6306495;22;20023;-83
2022/04/24 09:51:20;;;;;;;3.58;1.00;;;15.50;99.90;;;;;;6306566;22;20373;-84
2022/04/24 09:53:47;;;;;;;2.50;0.90;;;15.40;99.90;;;;;;6306872;22;20030;-85
2022/04/24 09:56:15;;;;;;;2.65;1.10;;;15.40;99.90;;;;;;6278606;22;20015;-84
2022/04/24 09:58:41;;;;;;;2.47;0.98;;;15.40;99.60;;;;;;6306683;22;20015;-86
2022/04/24 10:01:10;;;;;;;2.05;0.80;;;15.40;99.60;;;;;;6278762;22;20449;-84
2022/04/24 10:03:38;;;;;;;3.30;1.00;;;15.50;99.60;;;;;;6278927;22;20070;-85
2022/04/24 10:06:05;;;;;;;3.47;0.98;;;15.50;99.70;;;;;;6306727;22;20045;-85
2022/04/24 10:08:35;;;;;;;2.65;1.00;;;15.60;98.90;;;;;;6306170;22;20520;-84
2022/04/24 10:11:05;;;;;;;2.20;1.10;;;15.70;99.00;;;;;;6253174;22;20098;-84
2022/04/24 10:13:36;;;;;;;3.40;1.10;;;15.70;98.70;;;;;;6306299;22;20055;-84
2022/04/24 10:16:31;;;;;;;2.78;0.90;;;15.60;98.80;;;;;;6306318;22;20376;-85
2022/04/24 10:19:16;;;;;;;1.70;0.82;;;15.80;98.70;;;;;;6181848;23;20085;-84
2022/04/24 10:21:54;;;;;;;2.30;1.10;;;16.00;98.50;;;;;;6156692;23;20036;-85
2022/04/24 10:24:23;;;;;;;3.28;1.00;;;16.00;98.20;;;;;;6155521;23;20072;-84
2022/04/24 10:26:57;;;;;;;2.15;0.70;;;16.00;98.50;;;;;;6180626;23;20024;-83
2022/04/24 10:29:24;;;;;;;1.85;0.80;;;16.10;99.50;;;;;;6157073;23;20032;-83
2022/04/24 10:31:50;;;;;;;4.85;0.82;;;16.40;98.40;;;;;;6156378;23;20020;-82
2022/04/24 10:34:16;;;;;;;2.03;1.02;;;16.40;98.10;;;;;;6181390;23;20365;-86
2022/04/24 10:36:59;;;;;;;3.42;0.93;;;16.30;96.90;;;;;;6181475;23;20055;-83
2022/04/24 10:39:28;;;;;;;3.28;1.05;;;16.30;97.20;;;;;;6182003;23;20021;-86
2022/04/24 10:42:28;;;;;;;2.90;1.10;;;16.20;96.80;;;;;;6181452;23;20028;-84
2022/04/24 10:44:55;;;;;;;2.90;0.90;;;16.30;98.20;;;;;;6181541;23;20025;-84
2022/04/24 10:47:21;;;;;;;5.78;1.27;;;16.20;99.90;;;;;;6181797;23;20021;-84
2022/04/24 10:49:46;;;;;;;5.78;1.20;;;16.40;99.90;;;;;;6156675;23;20021;-85
2022/04/24 10:52:12;;;;;;;5.03;1.30;;;16.30;99.80;;;;;;6156615;23;20147;-83
2022/04/24 10:54:40;;;;;;;6.40;1.65;;;16.20;99.90;;;;;;6209266;22;20023;-84
2022/04/24 10:57:23;;;;;;;2.75;1.25;;;16.30;99.90;;;;;;6307585;22;20015;-84
2022/04/24 10:59:55;;;;;;;2.97;1.30;;;16.40;99.50;;;;;;6280943;22;20023;-83
2022/04/24 11:02:22;;;;;;;4.80;1.30;;;16.40;99.90;;;;;;6280417;22;20028;-83
2022/04/24 11:04:58;;;;;;;5.53;1.50;;;16.50;99.90;;;;;;6280780;22;20015;-85
2022/04/24 11:07:24;;;;;;;2.33;1.10;;;16.30;98.80;;;;;;6280955;22;20434;-84
2022/04/24 11:10:09;;;;;;;2.63;1.38;;;16.30;98.90;;;;;;6280847;22;20072;-84
2022/04/24 11:12:35;;;;;;;8.73;2.37;;;16.30;99.90;;;;;;6308270;22;20373;-84
2022/04/24 11:15:12;;;;;;;3.17;1.98;;;16.20;99.90;;;;;;6308440;22;20350;-83
2022/04/24 11:17:38;;;;;;;4.68;2.03;;;16.00;99.90;;;;;;6307994;22;20394;-89
2022/04/24 11:20:10;;;;;;;4.22;2.00;;;16.40;99.90;;;;;;6281004;22;20101;-85
2022/04/24 11:22:47;;;;;;;2.60;1.40;;;16.10;99.90;;;;;;6308414;22;20011;-86
2022/04/24 11:25:15;;;;;;;3.03;1.52;;;16.10;99.90;;;;;;6307945;22;20396;-84
2022/04/24 11:27:44;;;;;;;5.32;1.67;;;16.00;99.90;;;;;;6281009;22;20022;-86
2022/04/24 11:30:17;;;;;;;6.57;1.25;;;16.10;99.90;;;;;;6308189;22;20015;-84
2022/04/24 11:32:58;;;;;;;5.32;1.80;;;16.00;99.90;;;;;;6307978;22;20025;-85
2022/04/24 11:35:26;;;;;;;3.25;1.20;;;15.90;99.90;;;;;;6308546;22;20041;-83
2022/04/24 11:37:53;;;;;;;3.72;1.80;;;16.00;99.90;;;;;;6307783;22;20041;-85
2022/04/24 11:40:19;;;;;;;3.13;1.60;;;16.00;99.90;;;;;;6308293;22;20051;-84
2022/04/24 11:42:45;;;;;;;5.85;1.85;;;16.00;99.90;;;;;;6285528;22;20026;-86
2022/04/24 11:50:53;;;;;;;7.20;2.05;;;16.00;99.90;;;;;;6308445;22;20038;-84
2022/04/24 11:53:22;;;;;;;3.70;2.10;;;15.80;99.90;;;;;;6307990;22;20054;-84
2022/04/24 11:56:04;;;;;;;3.67;1.73;;;15.90;99.90;;;;;;6307817;22;20046;-83
2022/04/24 11:58:38;;;;;;;3.13;1.70;;;15.90;99.90;;;;;;6308031;22;20049;-85
2022/04/24 12:01:07;;;;;;;4.18;1.98;;;16.00;99.90;;;;;;6307343;22;20437;-87
2022/04/24 12:03:34;;;;;;;4.50;1.80;;;16.00;99.90;;;;;;6280139;22;20023;-83
2022/04/24 12:06:02;;;;;;;6.57;1.85;;;15.80;99.90;;;;;;6280400;22;20019;-85
2022/04/24 12:08:44;;;;;;;5.80;1.70;;;15.80;99.90;;;;;;6280401;22;20098;-83
2022/04/24 12:11:23;;;;;;;4.60;2.03;;;16.00;99.90;;;;;;6307819;22;20094;-84
2022/04/24 12:14:26;;;;;;;4.38;1.98;;;15.90;99.90;;;;;;6307621;22;20050;-84
2022/04/24 12:16:55;;;;;;;5.82;2.35;;;16.10;99.90;;;;;;6183070;23;20356;-84
2022/04/24 12:19:21;;;;;;;5.35;1.85;;;16.20;99.90;;;;;;6182731;23;20043;-84
2022/04/24 12:21:49;;;;;;;6.72;1.70;;;16.20;99.90;;;;;;6183013;23;20475;-84
2022/04/24 12:24:16;;;;;;;6.70;2.20;;;16.20;99.90;;;;;;6182726;23;20021;-82
2022/04/24 12:26:50;;;;;;;3.60;1.40;;;16.00;99.90;;;;;;6182450;23;20107;-83
2022/04/24 12:29:17;;;;;;;4.32;1.40;;;16.20;99.90;;;;;;6182883;23;20025;-83
2022/04/24 12:31:43;;;;;;;4.15;1.40;;;16.30;99.90;;;;;;6157613;23;20025;-85
2022/04/24 12:34:09;;;;;;;3.17;1.58;;;16.10;99.90;;;;;;6157737;23;20025;-83
2022/04/24 12:36:35;;;;;;;3.58;1.50;;;16.10;99.90;;;;;;6182725;23;20424;-83
2022/04/24 12:39:08;;;;;;;4.30;1.67;;;16.00;99.90;;;;;;6182498;23;20029;-83
2022/04/24 12:41:37;;;;;;;2.78;1.50;;;16.10;99.90;;;;;;6157430;23;20055;-83
2022/04/24 12:44:05;;;;;;;3.70;1.40;;;16.10;99.90;;;;;;6182535;23;20047;-84
2022/04/24 12:46:40;;;;;;;3.35;1.88;;;16.10;99.90;;;;;;6182292;23;20546;-84
2022/04/24 12:49:07;;;;;;;5.03;1.45;;;16.30;99.90;;;;;;6182646;23;20085;-84
2022/04/24 12:51:33;;;;;;;2.90;1.23;;;16.30;99.90;;;;;;6154699;23;20037;-83
2022/04/24 12:54:10;;;;;;;5.18;1.52;;;16.40;99.90;;;;;;6290988;22;20023;-83
2022/04/24 12:56:37;;;;;;;4.15;1.95;;;16.60;99.90;;;;;;6279270;22;20026;-84
2022/04/24 12:59:04;;;;;;;2.22;1.50;;;16.70;99.90;;;;;;6306530;22;20015;-84
2022/04/24 13:01:30;;;;;;;3.95;1.48;;;16.30;99.90;;;;;;6307072;22;20015;-84
2022/04/24 13:03:55;;;;;;;2.45;1.13;;;16.20;99.80;;;;;;6279174;22;20399;-85
2022/04/24 13:06:28;;;;;;;5.28;1.02;;;16.20;99.80;;;;;;6306910;22;20340;-83
2022/04/24 13:08:54;;;;;;;3.97;1.30;;;16.20;99.80;;;;;;6279194;22;20326;-83